Time;durP1;ratioP1;P1;durP2;ratioP2;P2;SDS_P1;SDS_P2;PMS_P1;PMS_P2;Temp;Humidity;BMP_temperature;BMP_pressure;BME280_temperature;BME280_humidity;BME280_pressure;Samples;Min_cycle;Max_cycle;Signal;HPM_P1;HPM_P2
2021/12/03 00:02:07;;;;;;;8.82;4.50;;;;;;;;;;5051364;28;20166;-72
2021/12/03 00:04:33;;;;;;;10.77;4.78;;;;;;;;;;5051620;28;20075;-71
2021/12/03 00:06:59;;;;;;;12.50;5.13;;;;;;;;;;5050688;28;20047;-71
2021/12/03 00:09:25;;;;;;;7.97;4.55;;;;;;;;;;5050993;28;20041;-71
2021/12/03 00:11:51;;;;;;;8.98;4.75;;;;;;;;;;5043504;28;20417;-72
2021/12/03 00:14:17;;;;;;;8.70;5.10;;;;;;;;;;5052742;28;20041;-71
2021/12/03 00:16:43;;;;;;;11.45;5.28;;;;;;;;;;5050521;28;20049;-71
2021/12/03 00:19:09;;;;;;;10.50;5.28;;;;;;;;;;5050725;28;20495;-71
2021/12/03 00:21:37;;;;;;;7.90;5.10;;;;;;;;;;5050979;28;20045;-71
2021/12/03 00:24:03;;;;;;;8.43;4.95;;;;;;;;;;5050756;28;20355;-71
2021/12/03 00:26:29;;;;;;;12.00;5.45;;;;;;;;;;5040890;28;20060;-72
2021/12/03 00:28:55;;;;;;;9.50;5.57;;;;;;;;;;5044757;28;20383;-72
2021/12/03 00:31:21;;;;;;;10.75;4.75;;;;;;;;;;5070389;28;20043;-71
2021/12/03 00:33:47;;;;;;;11.00;6.00;;;;;;;;;;5057272;28;20033;-71
2021/12/03 00:36:13;;;;;;;11.73;5.35;;;;;;;;;;5052394;28;20047;-72
2021/12/03 00:38:42;;;;;;;8.23;5.72;;;;;;;;;;5054711;28;20045;-71
2021/12/03 00:41:11;;;;;;;10.77;5.88;;;;;;;;;;5053709;28;20041;-71
2021/12/03 00:43:42;;;;;;;8.27;5.15;;;;;;;;;;5055166;28;20068;-71
2021/12/03 00:46:09;;;;;;;8.27;5.10;;;;;;;;;;5051535;28;20067;-71
2021/12/03 00:48:37;;;;;;;9.70;5.57;;;;;;;;;;5053831;28;20559;-71
2021/12/03 00:51:03;;;;;;;8.70;5.32;;;;;;;;;;5054364;28;20575;-71
2021/12/03 00:53:29;;;;;;;8.77;5.28;;;;;;;;;;5054974;28;20044;-71
2021/12/03 00:55:55;;;;;;;8.82;5.85;;;;;;;;;;5061527;28;20033;-71
2021/12/03 00:58:21;;;;;;;9.60;5.30;;;;;;;;;;5075032;28;20102;-71
2021/12/03 01:00:47;;;;;;;10.98;5.85;;;;;;;;;;5059361;28;20040;-71
2021/12/03 01:03:13;;;;;;;11.15;5.80;;;;;;;;;;5063539;28;20041;-71
2021/12/03 01:05:39;;;;;;;11.32;6.38;;;;;;;;;;5054356;28;20045;-71
2021/12/03 01:08:05;;;;;;;11.10;6.35;;;;;;;;;;5067877;28;20578;-71
2021/12/03 01:10:31;;;;;;;7.85;6.20;;;;;;;;;;5057979;28;20403;-71
2021/12/03 01:12:57;;;;;;;12.25;6.57;;;;;;;;;;5061336;28;20037;-71
2021/12/03 01:15:25;;;;;;;13.35;6.78;;;;;;;;;;5074552;28;20033;-71
2021/12/03 01:17:51;;;;;;;13.77;6.75;;;;;;;;;;5058048;28;20101;-71
2021/12/03 01:20:18;;;;;;;12.88;6.88;;;;;;;;;;5059278;28;20429;-71
2021/12/03 01:22:45;;;;;;;12.75;6.75;;;;;;;;;;5064537;28;20079;-71
2021/12/03 01:25:12;;;;;;;11.57;7.32;;;;;;;;;;5057878;28;20033;-71
2021/12/03 01:27:38;;;;;;;10.40;7.57;;;;;;;;;;5052214;28;20037;-71
2021/12/03 01:30:06;;;;;;;15.02;7.43;;;;;;;;;;5034327;28;20464;-71
2021/12/03 01:32:32;;;;;;;13.93;8.18;;;;;;;;;;5047036;28;20071;-71
2021/12/03 01:34:58;;;;;;;13.38;8.45;;;;;;;;;;5057038;28;20055;-71
2021/12/03 01:37:23;;;;;;;14.43;8.63;;;;;;;;;;5053855;28;20036;-71
2021/12/03 01:39:49;;;;;;;13.05;8.48;;;;;;;;;;5050248;28;20042;-71
2021/12/03 01:42:16;;;;;;;15.05;7.82;;;;;;;;;;5034017;28;20458;-71
2021/12/03 01:44:42;;;;;;;14.85;8.95;;;;;;;;;;5066351;28;20477;-71
2021/12/03 01:47:08;;;;;;;14.07;8.52;;;;;;;;;;5053797;28;20098;-71
2021/12/03 01:49:34;;;;;;;16.85;9.50;;;;;;;;;;5045535;28;20045;-71
2021/12/03 01:52:00;;;;;;;20.17;10.05;;;;;;;;;;5051218;28;20041;-71
2021/12/03 01:54:26;;;;;;;18.80;10.05;;;;;;;;;;5060073;28;20090;-71
2021/12/03 01:56:52;;;;;;;13.63;9.68;;;;;;;;;;5129551;22;20116;-68
2021/12/03 01:59:18;;;;;;;18.33;11.25;;;;;;;;;;5134727;27;20038;-68
2021/12/03 02:01:44;;;;;;;16.23;10.50;;;;;;;;;;5134715;27;20047;-68
2021/12/03 02:04:10;;;;;;;15.52;10.60;;;;;;;;;;5135445;27;20059;-68
2021/12/03 02:06:37;;;;;;;18.85;11.88;;;;;;;;;;5127879;27;20072;-68
2021/12/03 02:09:04;;;;;;;16.02;11.43;;;;;;;;;;5108599;28;20032;-68
2021/12/03 02:11:30;;;;;;;18.95;11.07;;;;;;;;;;5113479;28;20059;-68
2021/12/03 02:13:57;;;;;;;20.77;13.27;;;;;;;;;;5113862;28;20119;-68
2021/12/03 02:16:23;;;;;;;19.40;12.65;;;;;;;;;;5113953;28;20035;-68
2021/12/03 02:18:50;;;;;;;18.13;11.82;;;;;;;;;;5113776;28;20059;-68
2021/12/03 02:21:16;;;;;;;26.17;13.82;;;;;;;;;;5113245;28;20067;-68
2021/12/03 02:23:42;;;;;;;19.15;12.60;;;;;;;;;;5113110;28;20051;-68
2021/12/03 02:26:08;;;;;;;24.38;12.93;;;;;;;;;;5113702;28;20088;-68
2021/12/03 02:28:37;;;;;;;19.25;13.02;;;;;;;;;;5112660;28;20041;-68
2021/12/03 02:31:04;;;;;;;20.67;12.95;;;;;;;;;;5094899;28;20485;-68
2021/12/03 02:33:31;;;;;;;19.30;12.98;;;;;;;;;;5113851;28;20138;-68
2021/12/03 02:35:57;;;;;;;18.67;11.90;;;;;;;;;;5099098;28;20043;-68
2021/12/03 02:38:24;;;;;;;21.15;13.25;;;;;;;;;;5104344;28;20042;-68
2021/12/03 02:40:51;;;;;;;17.55;13.02;;;;;;;;;;5113218;28;20031;-68
2021/12/03 02:43:17;;;;;;;21.27;13.60;;;;;;;;;;5113576;28;20047;-68
2021/12/03 02:45:43;;;;;;;17.58;12.98;;;;;;;;;;5113429;28;20048;-68
2021/12/03 02:48:09;;;;;;;21.73;12.88;;;;;;;;;;5113324;28;20132;-68
2021/12/03 02:50:36;;;;;;;21.35;13.32;;;;;;;;;;5113102;28;20039;-68
2021/12/03 02:53:02;;;;;;;21.15;13.02;;;;;;;;;;5110616;28;20032;-68
2021/12/03 02:55:28;;;;;;;17.00;12.98;;;;;;;;;;5111795;28;20036;-68
2021/12/03 02:57:54;;;;;;;20.52;14.30;;;;;;;;;;5111878;28;20039;-68
2021/12/03 03:00:22;;;;;;;21.20;12.73;;;;;;;;;;5112132;28;20484;-68
2021/12/03 03:02:48;;;;;;;21.05;13.38;;;;;;;;;;5103572;28;20039;-68
2021/12/03 03:05:15;;;;;;;18.50;14.13;;;;;;;;;;5111534;28;20039;-68
2021/12/03 03:07:41;;;;;;;23.48;14.48;;;;;;;;;;5106017;28;20069;-68
2021/12/03 03:10:10;;;;;;;23.65;13.07;;;;;;;;;;5111886;28;20118;-68
2021/12/03 03:12:36;;;;;;;19.33;13.57;;;;;;;;;;5112847;28;20600;-68
2021/12/03 03:15:02;;;;;;;19.63;13.25;;;;;;;;;;5113101;28;20031;-68
2021/12/03 03:17:29;;;;;;;19.52;13.27;;;;;;;;;;5112563;28;20089;-67
2021/12/03 03:19:56;;;;;;;23.55;14.52;;;;;;;;;;5112332;28;20044;-68
2021/12/03 03:22:22;;;;;;;19.80;13.60;;;;;;;;;;5112245;28;20149;-68
2021/12/03 03:24:49;;;;;;;18.90;14.25;;;;;;;;;;5112255;28;20092;-68
2021/12/03 03:27:16;;;;;;;21.10;13.90;;;;;;;;;;5112486;28;20393;-67
2021/12/03 03:29:44;;;;;;;20.67;13.25;;;;;;;;;;5112410;28;20035;-68
2021/12/03 03:32:10;;;;;;;15.00;12.07;;;;;;;;;;5112360;28;20039;-68
2021/12/03 03:34:36;;;;;;;17.67;13.23;;;;;;;;;;5112076;28;20051;-68
2021/12/03 03:37:02;;;;;;;16.42;12.57;;;;;;;;;;5102464;28;20040;-68
2021/12/03 03:39:28;;;;;;;19.70;12.55;;;;;;;;;;5112081;28;20044;-68
2021/12/03 03:41:54;;;;;;;16.98;12.05;;;;;;;;;;5112324;28;20043;-68
2021/12/03 03:44:20;;;;;;;16.25;13.15;;;;;;;;;;5112149;28;20777;-68
2021/12/03 03:46:49;;;;;;;14.13;11.70;;;;;;;;;;5112376;28;20401;-68
2021/12/03 03:49:15;;;;;;;19.33;12.88;;;;;;;;;;5111914;28;20040;-68
2021/12/03 03:51:41;;;;;;;18.85;13.15;;;;;;;;;;5111444;28;20044;-69
2021/12/03 03:54:07;;;;;;;14.55;11.85;;;;;;;;;;5111807;28;20046;-68
2021/12/03 03:56:34;;;;;;;19.00;13.32;;;;;;;;;;5111801;28;20084;-68
2021/12/03 03:59:00;;;;;;;15.13;12.35;;;;;;;;;;5112439;28;20063;-68
2021/12/03 04:01:26;;;;;;;15.50;13.35;;;;;;;;;;5111643;28;20039;-68
2021/12/03 04:03:52;;;;;;;16.83;13.35;;;;;;;;;;5111906;28;20104;-68
2021/12/03 04:06:19;;;;;;;16.80;12.80;;;;;;;;;;5111235;28;20493;-68
2021/12/03 04:08:45;;;;;;;18.50;12.70;;;;;;;;;;5111880;28;20043;-68
2021/12/03 04:11:12;;;;;;;18.08;12.98;;;;;;;;;;5111186;28;20123;-68
2021/12/03 04:13:38;;;;;;;16.27;13.13;;;;;;;;;;5109276;28;20040;-68
2021/12/03 04:16:04;;;;;;;20.45;13.52;;;;;;;;;;5109853;28;21372;-68
2021/12/03 04:18:30;;;;;;;19.63;14.02;;;;;;;;;;5103549;28;20405;-68
2021/12/03 04:20:56;;;;;;;20.55;12.93;;;;;;;;;;5109258;28;20533;-68
2021/12/03 04:23:22;;;;;;;18.05;12.93;;;;;;;;;;5109812;28;20124;-68
2021/12/03 04:25:49;;;;;;;17.58;12.95;;;;;;;;;;5111381;28;20516;-67
2021/12/03 04:28:16;;;;;;;18.85;12.77;;;;;;;;;;5105532;28;20049;-68
2021/12/03 04:30:42;;;;;;;17.73;13.48;;;;;;;;;;5106006;28;20114;-68
2021/12/03 04:33:08;;;;;;;19.70;14.32;;;;;;;;;;5111243;28;20408;-68
2021/12/03 04:35:34;;;;;;;22.35;13.77;;;;;;;;;;5110784;28;20040;-68
2021/12/03 04:38:00;;;;;;;17.25;13.52;;;;;;;;;;5089104;28;20036;-68
2021/12/03 04:40:27;;;;;;;24.83;14.13;;;;;;;;;;5110730;28;20489;-68
2021/12/03 04:42:53;;;;;;;20.55;13.07;;;;;;;;;;5111206;28;20041;-68
2021/12/03 04:45:20;;;;;;;20.92;13.25;;;;;;;;;;5085213;28;20127;-68
2021/12/03 04:47:47;;;;;;;18.02;13.00;;;;;;;;;;5103345;28;20040;-68
2021/12/03 04:50:14;;;;;;;20.13;13.70;;;;;;;;;;5112193;28;20031;-68
2021/12/03 04:52:40;;;;;;;19.50;13.90;;;;;;;;;;5111039;28;20044;-68
2021/12/03 04:55:07;;;;;;;21.60;13.98;;;;;;;;;;5110675;28;20070;-68
2021/12/03 04:57:34;;;;;;;19.65;12.73;;;;;;;;;;5111333;28;20092;-68
2021/12/03 05:00:00;;;;;;;19.70;14.40;;;;;;;;;;5111004;28;20035;-68
2021/12/03 05:02:27;;;;;;;19.70;14.63;;;;;;;;;;5109274;28;20044;-68
2021/12/03 05:04:55;;;;;;;19.77;14.23;;;;;;;;;;5106919;28;20072;-68
2021/12/03 05:07:42;;;;;;;22.23;15.63;;;;;;;;;;5109217;28;20043;-68
2021/12/03 05:10:09;;;;;;;21.00;14.75;;;;;;;;;;5111484;28;20047;-68
2021/12/03 05:12:35;;;;;;;20.00;13.65;;;;;;;;;;5091939;28;20074;-68
2021/12/03 05:15:01;;;;;;;22.25;14.43;;;;;;;;;;5110857;28;20388;-68
2021/12/03 05:17:28;;;;;;;22.05;14.43;;;;;;;;;;5111350;28;20062;-68
2021/12/03 05:19:54;;;;;;;22.48;14.50;;;;;;;;;;5117869;28;20047;-68
2021/12/03 05:22:20;;;;;;;20.15;13.95;;;;;;;;;;5124649;27;20088;-68
2021/12/03 05:24:47;;;;;;;20.00;15.07;;;;;;;;;;5114691;28;20039;-68
2021/12/03 05:27:17;;;;;;;21.20;15.15;;;;;;;;;;5114874;28;20393;-68
2021/12/03 05:29:43;;;;;;;18.13;12.88;;;;;;;;;;5096298;28;20040;-68
2021/12/03 05:32:09;;;;;;;20.45;14.80;;;;;;;;;;5114699;28;20490;-68
2021/12/03 05:34:35;;;;;;;22.08;15.55;;;;;;;;;;5093919;28;20126;-68
2021/12/03 05:37:01;;;;;;;23.38;16.08;;;;;;;;;;5100640;28;20439;-68
2021/12/03 05:39:27;;;;;;;22.05;14.68;;;;;;;;;;5114335;28;20039;-68
2021/12/03 05:41:53;;;;;;;23.23;15.48;;;;;;;;;;5113868;28;20039;-68
2021/12/03 05:44:20;;;;;;;27.08;16.25;;;;;;;;;;5113767;28;20039;-68
2021/12/03 05:46:46;;;;;;;23.90;15.02;;;;;;;;;;5114562;28;20104;-67
2021/12/03 05:49:12;;;;;;;22.58;14.20;;;;;;;;;;5125804;27;20040;-68
2021/12/03 05:51:38;;;;;;;20.83;14.50;;;;;;;;;;5114349;28;20059;-68
2021/12/03 05:54:04;;;;;;;22.17;13.57;;;;;;;;;;5114331;28;20157;-68
2021/12/03 05:56:30;;;;;;;23.05;15.48;;;;;;;;;;5114094;28;20039;-68
2021/12/03 05:58:56;;;;;;;20.73;13.90;;;;;;;;;;5114073;28;20409;-68
2021/12/03 06:01:22;;;;;;;22.08;15.55;;;;;;;;;;5113863;28;20040;-68
2021/12/03 06:03:48;;;;;;;24.63;14.98;;;;;;;;;;5114179;27;20324;-68
2021/12/03 06:06:15;;;;;;;22.60;14.25;;;;;;;;;;5095610;28;20044;-68
2021/12/03 06:08:42;;;;;;;23.25;14.90;;;;;;;;;;5113883;28;20044;-68
2021/12/03 06:11:08;;;;;;;27.95;16.55;;;;;;;;;;5113621;28;20035;-68
2021/12/03 06:13:39;;;;;;;25.90;14.75;;;;;;;;;;5113563;28;20113;-68
2021/12/03 06:16:05;;;;;;;24.35;14.95;;;;;;;;;;5113969;28;20043;-68
2021/12/03 06:18:31;;;;;;;23.90;15.45;;;;;;;;;;5113945;27;20031;-68
2021/12/03 06:20:57;;;;;;;25.73;15.02;;;;;;;;;;5113641;28;20043;-68
2021/12/03 06:23:23;;;;;;;22.65;15.15;;;;;;;;;;5113291;28;20040;-68
2021/12/03 06:25:49;;;;;;;25.05;15.07;;;;;;;;;;5113834;27;20040;-68
2021/12/03 06:28:15;;;;;;;25.83;15.50;;;;;;;;;;5112753;28;20042;-68
2021/12/03 06:30:41;;;;;;;24.48;15.48;;;;;;;;;;5113663;28;20040;-68
2021/12/03 06:33:07;;;;;;;24.33;14.52;;;;;;;;;;5114826;27;20042;-68
2021/12/03 06:35:33;;;;;;;26.00;15.75;;;;;;;;;;5112871;28;20036;-68
2021/12/03 06:37:59;;;;;;;27.70;14.95;;;;;;;;;;5104686;28;20112;-68
2021/12/03 06:40:26;;;;;;;21.98;14.25;;;;;;;;;;5112816;28;20144;-68
2021/12/03 06:42:53;;;;;;;24.27;13.63;;;;;;;;;;5113444;28;20085;-68
2021/12/03 06:45:20;;;;;;;22.88;13.95;;;;;;;;;;5113241;27;20039;-68
2021/12/03 06:47:47;;;;;;;23.55;14.52;;;;;;;;;;5113176;28;20047;-68
2021/12/03 06:50:16;;;;;;;23.48;14.40;;;;;;;;;;5113206;28;20051;-68
2021/12/03 06:52:45;;;;;;;23.45;15.18;;;;;;;;;;5109021;28;20337;-68
2021/12/03 06:55:14;;;;;;;24.85;14.38;;;;;;;;;;5119428;27;20096;-68
2021/12/03 06:57:42;;;;;;;25.10;14.50;;;;;;;;;;5110902;28;20110;-68
2021/12/03 07:00:09;;;;;;;25.83;14.73;;;;;;;;;;5111543;28;20481;-68
2021/12/03 07:02:35;;;;;;;27.98;15.65;;;;;;;;;;5111240;28;20487;-67
2021/12/03 07:05:04;;;;;;;27.58;15.57;;;;;;;;;;5113074;28;20122;-68
2021/12/03 07:07:30;;;;;;;28.20;14.88;;;;;;;;;;5111334;28;20043;-68
2021/12/03 07:09:56;;;;;;;28.80;16.08;;;;;;;;;;5109215;28;20043;-68
2021/12/03 07:12:22;;;;;;;28.77;16.00;;;;;;;;;;5111777;28;20061;-68
2021/12/03 07:14:48;;;;;;;29.65;15.65;;;;;;;;;;5112032;28;20032;-68
2021/12/03 07:17:14;;;;;;;30.40;16.77;;;;;;;;;;5112467;28;20489;-68
2021/12/03 07:19:40;;;;;;;27.05;16.13;;;;;;;;;;5111981;28;20043;-68
2021/12/03 07:22:06;;;;;;;32.65;17.33;;;;;;;;;;5112624;28;20149;-68
2021/12/03 07:24:33;;;;;;;29.50;16.70;;;;;;;;;;5110760;28;20505;-68
2021/12/03 07:26:59;;;;;;;32.85;17.77;;;;;;;;;;5111537;28;20115;-68
2021/12/03 07:29:25;;;;;;;34.88;17.58;;;;;;;;;;5112895;28;20481;-68
2021/12/03 07:31:51;;;;;;;29.58;17.42;;;;;;;;;;5112136;28;20039;-68
2021/12/03 07:34:18;;;;;;;33.15;17.75;;;;;;;;;;5110924;28;20099;-68
2021/12/03 07:36:44;;;;;;;38.40;17.90;;;;;;;;;;5112041;28;20036;-68
2021/12/03 07:39:10;;;;;;;45.88;20.67;;;;;;;;;;5111498;28;20032;-68
2021/12/03 07:41:40;;;;;;;31.80;17.95;;;;;;;;;;5083372;28;20124;-68
2021/12/03 07:44:06;;;;;;;40.58;19.75;;;;;;;;;;5106080;28;20043;-68
2021/12/03 07:46:32;;;;;;;36.10;19.75;;;;;;;;;;5111918;28;20043;-68
2021/12/03 07:48:58;;;;;;;37.72;20.00;;;;;;;;;;5111829;28;20036;-68
2021/12/03 07:51:25;;;;;;;30.15;16.42;;;;;;;;;;5110902;28;20423;-68
2021/12/03 07:53:51;;;;;;;36.85;19.98;;;;;;;;;;5110929;28;20130;-68
2021/12/03 07:56:17;;;;;;;33.67;19.30;;;;;;;;;;5124015;22;20119;-70
2021/12/03 07:58:43;;;;;;;38.42;19.13;;;;;;;;;;5126007;27;20048;-70
2021/12/03 08:01:09;;;;;;;37.80;18.73;;;;;;;;;;5129764;27;20652;-70
2021/12/03 08:03:35;;;;;;;38.08;20.33;;;;;;;;;;5132277;27;20428;-70
2021/12/03 08:06:07;;;;;;;37.40;20.13;;;;;;;;;;5129280;27;20043;-71
2021/12/03 08:08:36;;;;;;;43.00;21.48;;;;;;;;;;5108960;28;20054;-70
2021/12/03 08:11:02;;;;;;;37.33;20.58;;;;;;;;;;5110274;28;20070;-70
2021/12/03 08:13:28;;;;;;;39.08;20.23;;;;;;;;;;5099185;28;20048;-70
2021/12/03 08:15:54;;;;;;;43.08;22.55;;;;;;;;;;5101218;28;20036;-71
2021/12/03 08:18:20;;;;;;;45.28;21.30;;;;;;;;;;5108005;28;20082;-70
2021/12/03 08:20:47;;;;;;;48.15;23.40;;;;;;;;;;5098887;28;20092;-70
2021/12/03 08:23:13;;;;;;;46.58;22.65;;;;;;;;;;5103910;28;20516;-70
2021/12/03 08:25:39;;;;;;;51.45;25.08;;;;;;;;;;5104971;28;20031;-70
2021/12/03 08:28:05;;;;;;;48.25;24.75;;;;;;;;;;5110206;28;20485;-70
2021/12/03 08:30:31;;;;;;;52.72;25.00;;;;;;;;;;5110458;28;20047;-71
2021/12/03 08:32:58;;;;;;;55.00;25.15;;;;;;;;;;5110562;28;20032;-72
2021/12/03 08:35:24;;;;;;;54.45;24.15;;;;;;;;;;5111232;28;20047;-72
2021/12/03 08:37:50;;;;;;;57.25;25.58;;;;;;;;;;5111250;28;20032;-73
2021/12/03 08:40:17;;;;;;;61.00;24.90;;;;;;;;;;5109580;28;20044;-72
2021/12/03 08:42:43;;;;;;;55.60;24.20;;;;;;;;;;5108386;28;20685;-73
2021/12/03 08:45:10;;;;;;;63.40;25.55;;;;;;;;;;5109881;28;20406;-74
2021/12/03 08:47:38;;;;;;;64.38;24.40;;;;;;;;;;5110753;28;20035;-73
2021/12/03 08:50:09;;;;;;;57.88;26.08;;;;;;;;;;5110517;28;20046;-73
2021/12/03 08:52:48;;;;;;;50.30;21.42;;;;;;;;;;5105250;28;20039;-74
2021/12/03 08:55:14;;;;;;;58.67;26.48;;;;;;;;;;5101506;28;20517;-74
2021/12/03 08:57:40;;;;;;;65.32;26.38;;;;;;;;;;5113173;28;20046;-73
2021/12/03 09:00:12;;;;;;;63.47;27.10;;;;;;;;;;5106529;28;20040;-73
2021/12/03 09:02:39;;;;;;;69.00;28.45;;;;;;;;;;5112432;28;20065;-73
2021/12/03 09:05:05;;;;;;;65.90;26.80;;;;;;;;;;5115079;28;20046;-73
2021/12/03 09:07:31;;;;;;;69.18;28.27;;;;;;;;;;5115009;28;20043;-73
2021/12/03 09:09:58;;;;;;;69.22;26.50;;;;;;;;;;5107259;28;20043;-73
2021/12/03 09:12:24;;;;;;;60.75;27.08;;;;;;;;;;5111740;28;20066;-72
2021/12/03 09:14:54;;;;;;;62.25;25.25;;;;;;;;;;5114223;28;20039;-72
2021/12/03 09:23:03;;;;;;;65.82;27.65;;;;;;;;;;5105867;28;20047;-72
2021/12/03 09:25:33;;;;;;;58.03;26.43;;;;;;;;;;5114401;28;20047;-72
2021/12/03 09:28:02;;;;;;;60.42;25.15;;;;;;;;;;5114808;28;20384;-72
2021/12/03 09:30:35;;;;;;;61.63;26.33;;;;;;;;;;5114579;28;20424;-72
2021/12/03 09:33:01;;;;;;;63.97;27.45;;;;;;;;;;5113425;28;20130;-72
2021/12/03 09:35:29;;;;;;;45.45;20.52;;;;;;;;;;5114042;28;20123;-72
2021/12/03 09:37:55;;;;;;;58.95;23.25;;;;;;;;;;5112904;28;20091;-72
2021/12/03 09:40:24;;;;;;;61.53;24.60;;;;;;;;;;5114329;28;20043;-72
2021/12/03 09:42:50;;;;;;;57.97;23.85;;;;;;;;;;5113447;28;21483;-72
2021/12/03 09:45:16;;;;;;;61.95;24.35;;;;;;;;;;5114327;28;20526;-72
2021/12/03 09:47:42;;;;;;;56.85;22.58;;;;;;;;;;5111821;28;20123;-73
2021/12/03 09:50:12;;;;;;;53.97;22.95;;;;;;;;;;5107373;28;20042;-72
2021/12/03 09:55:42;;;;;;;57.97;22.13;;;;;;;;;;5103450;28;20036;-72
2021/12/03 10:04:03;;;;;;;;;;;;;;;;;;5069941;28;20576;-72
2021/12/03 10:10:10;;;;;;;44.25;17.38;;;;;;;;;;5114005;28;20075;-73
2021/12/03 10:15:23;;;;;;;44.22;17.00;;;;;;;;;;5114178;28;20165;-73
2021/12/03 10:20:48;;;;;;;48.10;18.40;;;;;;;;;;5111859;28;20123;-72
2021/12/03 10:34:50;;;;;;;;;;;;;;;;;;5046471;28;20537;-72
2021/12/03 10:49:14;;;;;;;30.55;10.48;;;;;;;;;;5093741;28;20612;-72
2021/12/03 10:56:55;;;;;;;25.20;9.75;;;;;;;;;;5108467;28;20038;-71
2021/12/03 11:02:43;;;;;;;21.25;9.50;;;;;;;;;;5110532;28;20397;-71
2021/12/03 11:08:05;;;;;;;24.83;9.18;;;;;;;;;;5105541;28;20055;-72
2021/12/03 11:13:37;;;;;;;20.40;8.43;;;;;;;;;;5111171;28;20044;-71
2021/12/03 11:19:27;;;;;;;16.83;6.82;;;;;;;;;;5111240;28;20035;-71
2021/12/03 11:34:02;;;;;;;16.08;5.70;;;;;;;;;;5112017;28;20048;-72
2021/12/03 11:38:49;;;;;;;11.82;5.45;;;;;;;;;;5094418;28;20446;-72
2021/12/03 11:50:41;;;;;;;17.17;5.40;;;;;;;;;;5111319;28;20036;-73
2021/12/03 12:08:24;;;;;;;16.67;6.00;;;;;;;;;;5110046;28;20088;-75
2021/12/03 12:11:15;;;;;;;16.63;5.85;;;;;;;;;;5111602;28;20043;-75
2021/12/03 12:41:08;;;;;;;11.65;6.13;;;;;;;;;;5111286;28;20043;-73
2021/12/03 13:33:08;;;;;;;16.92;6.80;;;;;;;;;;5110135;28;20084;-72
2021/12/03 13:37:01;;;;;;;14.57;6.97;;;;;;;;;;5109314;28;20046;-76
2021/12/03 14:11:53;;;;;;;10.43;6.25;;;;;;;;;;5075256;28;20052;-63
2021/12/03 14:21:15;;;;;;;15.43;6.10;;;;;;;;;;5093255;28;20063;-63
2021/12/03 14:39:06;;;;;;;18.38;10.18;;;;;;;;;;5088548;28;20043;-62
2021/12/03 14:44:29;;;;;;;12.85;5.75;;;;;;;;;;5090110;28;20043;-63
2021/12/03 14:50:24;;;;;;;11.82;5.75;;;;;;;;;;5092685;28;20489;-62
2021/12/03 14:53:13;;;;;;;13.90;6.22;;;;;;;;;;5082188;28;20509;-62
2021/12/03 14:55:39;;;;;;;16.70;7.50;;;;;;;;;;5075035;28;20099;-62
2021/12/03 14:58:10;;;;;;;10.75;6.03;;;;;;;;;;5090514;28;20177;-62
2021/12/03 15:08:25;;;;;;;15.13;8.57;;;;;;;;;;5084714;28;20386;-62
2021/12/03 15:13:57;;;;;;;16.58;5.90;;;;;;;;;;5083978;28;20097;-62
2021/12/03 15:19:09;;;;;;;16.17;6.55;;;;;;;;;;5086526;28;20047;-62
2021/12/03 15:21:58;;;;;;;10.75;5.15;;;;;;;;;;5091431;28;20064;-62
2021/12/03 15:27:33;;;;;;;8.82;4.88;;;;;;;;;;5089666;28;20052;-62
2021/12/03 15:32:34;;;;;;;10.73;5.68;;;;;;;;;;5091954;28;20835;-63
2021/12/03 15:40:20;;;;;;;13.00;8.80;;;;;;;;;;5082246;28;20069;-63
2021/12/03 16:04:30;;;;;;;12.73;7.57;;;;;;;;;;5082820;28;20044;-62
2021/12/03 16:12:50;;;;;;;10.13;7.38;;;;;;;;;;5089436;28;20040;-62
2021/12/03 16:45:30;;;;;;;9.77;6.95;;;;;;;;;;5083083;28;20127;-63
2021/12/03 16:53:23;;;;;;;10.95;8.10;;;;;;;;;;5088092;28;20047;-63
2021/12/03 16:56:11;;;;;;;9.38;7.07;;;;;;;;;;5090038;28;20044;-63
2021/12/03 16:58:39;;;;;;;11.05;8.65;;;;;;;;;;5067297;28;20036;-63
2021/12/03 17:01:09;;;;;;;12.85;8.27;;;;;;;;;;5085785;28;20032;-63
2021/12/03 17:04:00;;;;;;;14.25;9.57;;;;;;;;;;5087352;28;20474;-63
2021/12/03 17:07:11;;;;;;;14.65;11.95;;;;;;;;;;5078723;28;20050;-62
2021/12/03 17:57:53;;;;;;;14.70;10.07;;;;;;;;;;5081845;28;20036;-62
2021/12/03 18:00:30;;;;;;;14.20;10.93;;;;;;;;;;5089894;28;20032;-63
2021/12/03 18:03:07;;;;;;;13.15;9.40;;;;;;;;;;5087460;28;20105;-62
2021/12/03 18:06:07;;;;;;;15.75;12.07;;;;;;;;;;5098698;28;20047;-63
2021/12/03 18:11:35;;;;;;;19.67;13.88;;;;;;;;;;5092289;28;20463;-63
2021/12/03 18:14:25;;;;;;;18.95;12.55;;;;;;;;;;5103009;28;20122;-63
2021/12/03 18:49:40;;;;;;;37.13;24.92;;;;;;;;;;5086093;28;20127;-63
2021/12/03 18:52:20;;;;;;;30.65;19.80;;;;;;;;;;5084635;28;20051;-63
2021/12/03 18:54:58;;;;;;;24.80;15.00;;;;;;;;;;5092711;28;20039;-63
2021/12/03 18:57:29;;;;;;;21.95;12.93;;;;;;;;;;5090432;28;20111;-63
2021/12/03 18:59:59;;;;;;;18.27;11.93;;;;;;;;;;5090141;28;20047;-63
2021/12/03 19:02:26;;;;;;;23.00;15.53;;;;;;;;;;5092003;28;20044;-63
2021/12/03 19:07:46;;;;;;;30.35;17.95;;;;;;;;;;5091256;28;20047;-62
2021/12/03 19:10:10;;;;;;;25.15;15.45;;;;;;;;;;5086912;28;20040;-62
2021/12/03 19:12:40;;;;;;;33.95;20.40;;;;;;;;;;5089437;28;20063;-63
2021/12/03 19:15:06;;;;;;;28.52;20.33;;;;;;;;;;5068976;28;21316;-63
2021/12/03 19:17:38;;;;;;;25.83;16.80;;;;;;;;;;5092071;28;20115;-62
2021/12/03 19:20:08;;;;;;;21.02;13.10;;;;;;;;;;5092440;28;20040;-62
2021/12/03 19:22:34;;;;;;;24.42;15.63;;;;;;;;;;5086986;28;20093;-63
2021/12/03 19:25:00;;;;;;;25.95;16.13;;;;;;;;;;5086516;28;20059;-63
2021/12/03 19:27:27;;;;;;;28.40;17.48;;;;;;;;;;5093387;28;20067;-63
2021/12/03 19:29:55;;;;;;;26.90;17.83;;;;;;;;;;5080466;28;20377;-63
2021/12/03 19:32:26;;;;;;;26.23;15.23;;;;;;;;;;5083860;28;20485;-63
2021/12/03 19:34:52;;;;;;;22.95;14.60;;;;;;;;;;5091663;28;20463;-63
2021/12/03 19:37:18;;;;;;;22.58;14.90;;;;;;;;;;5091306;28;20039;-63
2021/12/03 19:39:45;;;;;;;26.90;16.60;;;;;;;;;;5089619;28;20093;-63
2021/12/03 19:42:14;;;;;;;26.30;16.33;;;;;;;;;;5071937;28;20040;-63
2021/12/03 19:45:03;;;;;;;22.75;14.02;;;;;;;;;;5088589;28;20044;-63
2021/12/03 19:47:36;;;;;;;24.27;14.45;;;;;;;;;;5071711;28;20106;-63
2021/12/03 19:50:07;;;;;;;23.50;14.27;;;;;;;;;;5088486;28;20036;-63
2021/12/03 19:52:48;;;;;;;23.08;14.98;;;;;;;;;;5091196;28;20045;-63
2021/12/03 19:55:14;;;;;;;23.70;14.35;;;;;;;;;;5086126;28;20588;-63
2021/12/03 19:57:40;;;;;;;20.15;13.40;;;;;;;;;;5093593;22;20130;-71
2021/12/03 20:00:06;;;;;;;21.50;13.18;;;;;;;;;;5070512;28;20076;-71
2021/12/03 20:02:32;;;;;;;24.25;14.63;;;;;;;;;;5070950;28;20461;-72
2021/12/03 20:04:59;;;;;;;21.67;12.25;;;;;;;;;;5077973;28;20120;-71
2021/12/03 20:07:25;;;;;;;26.00;14.68;;;;;;;;;;5073021;28;20135;-71
2021/12/03 20:10:11;;;;;;;26.60;16.38;;;;;;;;;;5091786;28;20371;-72
2021/12/03 20:12:38;;;;;;;25.23;15.75;;;;;;;;;;5090654;28;20048;-71
2021/12/03 20:15:08;;;;;;;23.15;14.38;;;;;;;;;;5080321;28;20566;-71
2021/12/03 20:17:50;;;;;;;24.10;14.80;;;;;;;;;;5076730;28;20048;-71
2021/12/03 20:20:17;;;;;;;25.00;14.05;;;;;;;;;;5070859;28;20037;-71
2021/12/03 20:22:55;;;;;;;23.80;14.45;;;;;;;;;;5067875;28;20037;-71
2021/12/03 20:27:57;;;;;;;25.92;15.05;;;;;;;;;;5061939;28;20083;-74
2021/12/03 20:30:34;;;;;;;32.15;19.25;;;;;;;;;;5063586;28;20402;-71
2021/12/03 20:38:32;;;;;;;26.10;16.48;;;;;;;;;;5067868;28;20036;-70
2021/12/03 20:41:01;;;;;;;28.02;17.10;;;;;;;;;;5069308;28;20064;-72
2021/12/03 20:43:42;;;;;;;29.25;17.30;;;;;;;;;;5072489;28;20093;-69
2021/12/03 20:46:27;;;;;;;25.53;14.17;;;;;;;;;;5078633;28;20037;-70
2021/12/03 20:49:15;;;;;;;27.85;15.52;;;;;;;;;;5074230;28;20041;-71
2021/12/03 20:54:25;;;;;;;24.52;15.40;;;;;;;;;;5085210;28;20047;-71
2021/12/03 21:11:28;;;;;;;21.75;12.73;;;;;;;;;;5073983;28;20044;-72
2021/12/03 21:13:36;;;;;;;25.98;14.45;;;;;;;;;;5058821;28;20052;-72
2021/12/03 21:19:18;;;;;;;30.27;15.95;;;;;;;;;;5075902;28;20102;-74
2021/12/03 21:21:33;;;;;;;25.38;14.35;;;;;;;;;;5065355;28;20040;-74
2021/12/03 21:24:01;;;;;;;20.42;11.73;;;;;;;;;;5074484;28;20055;-74
2021/12/03 21:26:30;;;;;;;29.30;17.15;;;;;;;;;;5072022;28;20075;-74
2021/12/03 21:32:01;;;;;;;26.75;15.50;;;;;;;;;;5037390;28;20044;-73
2021/12/03 21:42:39;;;;;;;21.40;12.23;;;;;;;;;;5056802;28;20437;-74
2021/12/03 21:45:06;;;;;;;23.00;14.63;;;;;;;;;;5070916;28;20040;-73
2021/12/03 21:47:32;;;;;;;24.50;14.45;;;;;;;;;;5073955;28;20044;-74
2021/12/03 21:49:58;;;;;;;22.50;13.85;;;;;;;;;;5072952;28;20055;-74
2021/12/03 21:52:25;;;;;;;21.58;13.23;;;;;;;;;;5073180;28;20052;-74
2021/12/03 21:54:52;;;;;;;26.52;14.35;;;;;;;;;;5073124;28;20111;-74
2021/12/03 21:57:18;;;;;;;19.27;11.05;;;;;;;;;;5072818;28;20071;-74
2021/12/03 21:59:44;;;;;;;28.15;14.13;;;;;;;;;;5070855;28;20105;-74
2021/12/03 22:02:11;;;;;;;23.98;14.65;;;;;;;;;;5068739;28;20111;-73
2021/12/03 22:04:37;;;;;;;24.08;13.10;;;;;;;;;;5072500;28;20108;-73